Time;durP1;ratioP1;P1;durP2;ratioP2;P2;SDS_P1;SDS_P2;PMS_P1;PMS_P2;Temp;Humidity;BMP_temperature;BMP_pressure;BME280_temperature;BME280_humidity;BME280_pressure;Samples;Min_cycle;Max_cycle;Signal;HPM_P1;HPM_P2
2022/05/13 00:00:05;;;;;;;20.50;18.70;;;17.10;99.90;;;;;;5030289;28;20416;-80
2022/05/13 00:02:31;;;;;;;23.30;21.40;;;17.10;99.90;;;;;;5030382;28;20462;-80
2022/05/13 00:04:56;;;;;;;22.07;20.57;;;17.10;99.90;;;;;;5030081;28;20419;-80
2022/05/13 00:07:22;;;;;;;20.67;19.30;;;17.10;99.90;;;;;;5030410;28;20173;-80
2022/05/13 00:09:56;;;;;;;20.57;19.17;;;17.10;99.90;;;;;;5029879;28;20181;-80
2022/05/13 00:12:24;;;;;;;18.73;17.50;;;17.10;99.90;;;;;;5030284;28;20644;-80
2022/05/13 00:14:51;;;;;;;20.63;19.27;;;17.10;99.90;;;;;;5030080;28;20423;-80
2022/05/13 00:17:17;;;;;;;20.23;18.50;;;17.00;99.90;;;;;;5030257;28;20420;-80
2022/05/13 00:19:43;;;;;;;22.10;20.50;;;17.00;99.90;;;;;;5030357;28;20523;-80
2022/05/13 00:22:08;;;;;;;18.87;17.83;;;17.10;99.90;;;;;;5030160;28;20550;-80
2022/05/13 00:24:34;;;;;;;20.40;19.10;;;17.10;99.90;;;;;;5031117;28;20183;-80
2022/05/13 00:27:00;;;;;;;22.60;21.00;;;17.00;99.90;;;;;;5034013;28;20176;-80
2022/05/13 00:29:27;;;;;;;21.03;19.23;;;17.10;99.90;;;;;;5033829;28;20188;-80
2022/05/13 00:31:52;;;;;;;27.35;25.05;;;17.10;99.90;;;;;;5032674;28;20763;-80
2022/05/13 00:34:19;;;;;;;22.87;21.30;;;17.10;99.90;;;;;;5033661;28;20179;-80
2022/05/13 00:36:44;;;;;;;20.77;19.17;;;17.10;99.90;;;;;;5033697;28;20813;-80
2022/05/13 00:39:10;;;;;;;18.20;16.90;;;17.10;99.90;;;;;;5033811;28;20450;-80
2022/05/13 00:41:36;;;;;;;18.87;17.77;;;17.10;99.90;;;;;;5033685;28;20201;-80
2022/05/13 00:44:02;;;;;;;21.47;19.87;;;17.10;99.90;;;;;;5033436;28;20223;-80
2022/05/13 00:46:28;;;;;;;22.87;21.57;;;17.20;99.90;;;;;;5033824;28;20423;-80
2022/05/13 00:48:55;;;;;;;22.83;21.57;;;17.20;99.90;;;;;;5033687;28;20419;-80
2022/05/13 00:51:26;;;;;;;20.23;18.93;;;17.20;99.90;;;;;;5033449;28;20510;-80
2022/05/13 00:53:52;;;;;;;22.67;21.17;;;17.20;99.90;;;;;;5033540;28;20418;-81
2022/05/13 00:56:19;;;;;;;24.07;22.57;;;17.10;99.90;;;;;;5033150;28;20426;-79
2022/05/13 00:58:48;;;;;;;20.07;18.90;;;17.10;99.90;;;;;;5033413;28;20551;-81
2022/05/13 01:01:15;;;;;;;20.63;19.33;;;17.10;99.90;;;;;;5033174;28;20963;-81
2022/05/13 01:03:41;;;;;;;18.80;17.60;;;17.10;99.90;;;;;;5033428;28;20411;-81
2022/05/13 01:06:13;;;;;;;18.87;17.77;;;17.10;99.90;;;;;;5033130;28;20790;-81
2022/05/13 01:08:39;;;;;;;20.60;18.83;;;17.00;99.90;;;;;;5033415;28;20421;-79
2022/05/13 01:11:11;;;;;;;20.57;19.20;;;17.10;99.90;;;;;;5033058;28;20853;-80
2022/05/13 01:13:37;;;;;;;21.27;20.07;;;17.10;99.90;;;;;;5033206;28;20895;-80
2022/05/13 01:16:04;;;;;;;22.13;20.73;;;17.00;99.90;;;;;;5032838;28;20419;-80
2022/05/13 01:18:36;;;;;;;23.47;21.57;;;17.00;99.90;;;;;;5033231;28;20906;-80
2022/05/13 01:21:04;;;;;;;20.03;18.33;;;17.10;99.90;;;;;;5032620;28;20470;-79
2022/05/13 01:23:36;;;;;;;21.20;19.50;;;17.10;99.90;;;;;;5033046;28;20911;-84
2022/05/13 01:26:20;;;;;;;20.60;19.30;;;17.10;99.90;;;;;;5033317;28;20491;-83
2022/05/13 01:28:49;;;;;;;22.10;20.40;;;17.10;99.90;;;;;;5033513;28;20505;-83
2022/05/13 01:31:31;;;;;;;22.57;21.23;;;17.10;99.90;;;;;;5032904;28;20876;-83
2022/05/13 01:33:58;;;;;;;23.20;21.50;;;17.20;99.90;;;;;;5032575;28;20915;-83
2022/05/13 01:36:25;;;;;;;22.10;20.80;;;17.20;99.90;;;;;;5032601;28;20854;-83
2022/05/13 01:38:50;;;;;;;21.73;20.33;;;17.20;99.90;;;;;;5033012;28;20420;-83
2022/05/13 01:41:16;;;;;;;19.53;18.33;;;17.20;99.90;;;;;;5032751;28;20461;-83
2022/05/13 01:43:43;;;;;;;20.80;19.40;;;17.20;99.90;;;;;;5032832;28;20649;-83
2022/05/13 01:46:10;;;;;;;22.73;21.20;;;17.20;99.90;;;;;;5032589;28;20180;-83
2022/05/13 01:48:36;;;;;;;21.17;19.87;;;17.20;99.90;;;;;;5032405;28;20930;-83
2022/05/13 01:51:03;;;;;;;20.60;19.37;;;17.20;99.90;;;;;;5032445;28;20442;-83
2022/05/13 01:53:29;;;;;;;18.70;17.50;;;17.10;99.90;;;;;;5032392;28;20506;-83
2022/05/13 01:55:55;;;;;;;17.70;16.67;;;17.10;99.90;;;;;;5032264;28;20502;-83
2022/05/13 01:58:22;;;;;;;18.83;17.73;;;17.10;99.90;;;;;;5032389;28;20435;-83
2022/05/13 02:00:51;;;;;;;19.40;18.30;;;17.00;99.90;;;;;;5032231;28;20189;-83
2022/05/13 02:06:03;;;;;;;19.20;17.33;;;16.70;99.90;;;;;;5033556;28;20407;-83
2022/05/13 02:08:29;;;;;;;23.30;19.70;;;16.80;99.90;;;;;;5032111;28;20414;-83
2022/05/13 02:10:55;;;;;;;20.17;18.53;;;16.90;99.90;;;;;;5031969;28;20899;-83
2022/05/13 02:13:21;;;;;;;21.30;19.70;;;16.80;99.90;;;;;;5031961;28;20411;-83
2022/05/13 02:15:47;;;;;;;20.10;18.50;;;16.80;99.90;;;;;;5032055;28;20177;-83
2022/05/13 02:18:13;;;;;;;20.00;18.50;;;17.00;99.90;;;;;;5031787;28;20422;-83
2022/05/13 02:20:40;;;;;;;20.13;18.70;;;17.00;99.90;;;;;;5031916;28;20179;-84
2022/05/13 02:23:06;;;;;;;20.67;18.80;;;16.80;99.90;;;;;;5031711;28;20180;-84
2022/05/13 02:25:33;;;;;;;20.20;18.53;;;16.90;99.90;;;;;;5031612;28;20408;-84
2022/05/13 02:27:59;;;;;;;19.77;18.03;;;16.90;99.90;;;;;;5031620;28;20466;-84
2022/05/13 02:30:27;;;;;;;21.13;19.43;;;16.80;99.90;;;;;;5031896;28;20822;-84
2022/05/13 02:32:53;;;;;;;19.43;17.70;;;16.80;99.90;;;;;;5031498;28;20443;-84
2022/05/13 02:35:20;;;;;;;21.37;19.77;;;16.80;99.90;;;;;;5030808;28;20520;-83
2022/05/13 02:37:47;;;;;;;16.60;15.20;;;16.90;99.90;;;;;;5031508;28;20434;-83
2022/05/13 02:40:13;;;;;;;19.00;17.07;;;16.90;99.90;;;;;;5031506;28;20427;-83
2022/05/13 02:42:39;;;;;;;19.43;17.50;;;16.80;99.90;;;;;;5031443;28;20459;-83
2022/05/13 02:45:09;;;;;;;20.17;18.47;;;16.70;99.90;;;;;;5031383;28;20419;-83
2022/05/13 02:47:35;;;;;;;17.70;16.40;;;16.70;99.90;;;;;;5031004;28;20628;-84
2022/05/13 02:50:19;;;;;;;19.67;18.30;;;16.60;99.90;;;;;;5031313;28;20773;-84
2022/05/13 02:52:46;;;;;;;19.10;17.73;;;16.60;99.90;;;;;;5031370;28;20451;-84
2022/05/13 02:55:12;;;;;;;18.83;17.43;;;16.60;99.90;;;;;;5032252;28;20415;-83
2022/05/13 02:57:38;;;;;;;20.30;18.73;;;16.70;99.90;;;;;;5031382;28;20424;-83
2022/05/13 03:00:05;;;;;;;20.40;18.50;;;16.70;99.90;;;;;;5031492;28;20803;-83
2022/05/13 03:02:31;;;;;;;20.87;19.17;;;16.70;99.90;;;;;;5030164;28;20459;-84
2022/05/13 03:04:57;;;;;;;20.13;18.53;;;16.60;99.90;;;;;;5030389;28;20427;-84
2022/05/13 03:07:23;;;;;;;19.43;18.10;;;16.50;99.90;;;;;;5031120;28;20510;-83
2022/05/13 03:09:49;;;;;;;17.07;16.07;;;16.50;99.90;;;;;;5031108;28;20180;-83
2022/05/13 03:12:15;;;;;;;20.43;18.93;;;16.50;99.90;;;;;;5032556;28;20207;-83
2022/05/13 03:14:41;;;;;;;18.60;17.50;;;16.40;99.90;;;;;;5031043;28;20188;-84
2022/05/13 03:17:07;;;;;;;20.47;18.20;;;16.50;99.90;;;;;;5022669;28;20825;-83
2022/05/13 03:19:35;;;;;;;20.17;18.57;;;16.50;99.90;;;;;;5022298;28;20416;-83
2022/05/13 03:22:03;;;;;;;20.33;18.83;;;16.50;99.90;;;;;;5018347;28;20464;-83
2022/05/13 03:24:29;;;;;;;20.50;18.73;;;16.50;99.90;;;;;;5022815;28;20779;-83
2022/05/13 03:26:55;;;;;;;19.47;18.17;;;16.40;99.90;;;;;;5024002;28;20466;-84
2022/05/13 03:29:21;;;;;;;19.20;18.13;;;16.50;99.90;;;;;;5020579;28;20272;-83
2022/05/13 03:31:47;;;;;;;20.10;18.80;;;16.40;99.90;;;;;;5021705;28;20530;-83
2022/05/13 03:34:13;;;;;;;20.50;18.90;;;16.40;99.90;;;;;;5026197;28;20200;-83
2022/05/13 03:36:39;;;;;;;21.70;20.13;;;16.40;99.90;;;;;;5031225;28;20196;-81
2022/05/13 03:39:11;;;;;;;20.60;19.40;;;16.30;99.90;;;;;;5031588;28;20930;-82
2022/05/13 03:41:36;;;;;;;19.47;18.20;;;16.40;99.90;;;;;;5011026;23;20225;-80
2022/05/13 03:44:03;;;;;;;19.30;18.07;;;16.40;99.90;;;;;;5010477;23;20847;-80
2022/05/13 03:46:29;;;;;;;19.30;17.90;;;16.40;99.90;;;;;;5032278;28;20175;-80
2022/05/13 03:48:57;;;;;;;19.77;18.47;;;16.40;99.90;;;;;;5031054;28;20416;-79
2022/05/13 03:51:23;;;;;;;20.30;18.70;;;16.40;99.90;;;;;;5031036;28;20183;-79
2022/05/13 03:53:49;;;;;;;19.40;18.33;;;16.30;99.90;;;;;;5031039;28;20420;-80
2022/05/13 03:56:14;;;;;;;19.87;18.60;;;16.40;99.90;;;;;;5024022;28;20272;-80
2022/05/13 03:58:40;;;;;;;19.40;18.03;;;16.30;99.90;;;;;;5011477;28;20189;-79
2022/05/13 04:01:06;;;;;;;19.53;17.97;;;16.30;99.90;;;;;;5014787;28;20235;-80
2022/05/13 04:03:32;;;;;;;20.10;18.40;;;16.20;99.90;;;;;;5015170;28;20204;-80
2022/05/13 04:08:57;;;;;;;18.00;17.10;;;16.10;99.90;;;;;;5016744;28;20509;-80
2022/05/13 04:11:28;;;;;;;19.07;17.87;;;16.20;99.90;;;;;;5015174;28;20420;-80
2022/05/13 04:16:38;;;;;;;19.30;18.00;;;16.30;99.90;;;;;;5016429;28;20471;-80
2022/05/13 04:19:04;;;;;;;20.00;18.90;;;16.30;99.90;;;;;;5014723;28;20428;-81
2022/05/13 04:21:32;;;;;;;21.27;19.73;;;16.30;99.90;;;;;;5014604;28;20212;-79
2022/05/13 04:24:01;;;;;;;21.30;19.63;;;16.30;99.90;;;;;;5014663;28;20664;-80
2022/05/13 04:26:27;;;;;;;19.47;18.37;;;16.30;99.90;;;;;;5014642;28;20558;-80
2022/05/13 04:28:54;;;;;;;20.27;19.00;;;16.40;99.90;;;;;;5014691;28;20503;-78
2022/05/13 04:31:24;;;;;;;19.67;18.37;;;16.40;99.90;;;;;;5014666;28;20466;-79
2022/05/13 04:33:51;;;;;;;20.40;19.13;;;16.30;99.90;;;;;;5014441;28;20895;-79
2022/05/13 04:36:17;;;;;;;19.53;18.43;;;16.30;99.90;;;;;;5014081;28;20420;-79
2022/05/13 04:38:44;;;;;;;19.17;18.17;;;16.30;99.90;;;;;;5023892;28;20428;-79
2022/05/13 04:43:57;;;;;;;21.23;19.73;;;16.30;99.90;;;;;;5035591;28;20438;-78
2022/05/13 04:46:23;;;;;;;20.00;18.87;;;16.30;99.90;;;;;;5034049;28;20905;-80
2022/05/13 04:48:51;;;;;;;20.40;19.30;;;16.30;99.90;;;;;;5034107;28;20419;-79
2022/05/13 04:51:18;;;;;;;21.03;19.53;;;16.30;99.90;;;;;;5034034;28;20423;-79
2022/05/13 04:53:45;;;;;;;21.80;20.30;;;16.30;99.90;;;;;;5034065;28;20419;-80
2022/05/13 04:56:11;;;;;;;21.20;19.90;;;16.20;99.90;;;;;;5033762;28;20416;-79
2022/05/13 04:58:38;;;;;;;21.07;19.80;;;16.30;99.90;;;;;;5033908;28;20422;-79
2022/05/13 05:01:06;;;;;;;19.00;17.93;;;16.30;99.90;;;;;;5033759;28;20432;-79
2022/05/13 05:03:32;;;;;;;20.43;19.23;;;16.30;99.90;;;;;;5033832;28;20420;-79
2022/05/13 05:05:59;;;;;;;21.07;19.57;;;16.30;99.90;;;;;;5033647;28;20423;-80
2022/05/13 05:08:26;;;;;;;21.50;19.90;;;16.30;99.90;;;;;;5034131;28;20412;-82
2022/05/13 05:10:52;;;;;;;20.47;19.00;;;16.30;99.90;;;;;;5033528;28;20763;-83
2022/05/13 05:13:24;;;;;;;21.13;19.63;;;16.30;99.90;;;;;;5030129;28;20410;-83
2022/05/13 05:15:49;;;;;;;22.33;20.73;;;16.40;99.90;;;;;;5033337;28;20176;-83
2022/05/13 05:18:15;;;;;;;20.50;19.40;;;16.40;99.90;;;;;;5033627;28;20466;-84
2022/05/13 05:20:42;;;;;;;20.63;19.53;;;16.30;99.90;;;;;;5034243;28;20173;-83
2022/05/13 05:23:14;;;;;;;21.17;20.00;;;16.40;99.90;;;;;;5030906;28;20455;-83
2022/05/13 05:25:40;;;;;;;21.63;20.13;;;16.30;99.90;;;;;;5033802;28;20415;-83
2022/05/13 05:28:06;;;;;;;21.90;20.50;;;16.30;99.90;;;;;;5034027;28;20420;-83
2022/05/13 05:30:45;;;;;;;21.47;20.13;;;16.20;99.90;;;;;;5033847;28;20423;-82
2022/05/13 05:33:12;;;;;;;21.93;20.80;;;16.20;99.90;;;;;;5033570;28;20200;-83
2022/05/13 05:35:38;;;;;;;22.13;20.73;;;16.20;99.90;;;;;;5033316;28;20506;-83
2022/05/13 05:38:07;;;;;;;21.63;20.43;;;16.30;99.90;;;;;;5033547;28;20489;-83
2022/05/13 05:40:38;;;;;;;22.10;20.73;;;16.20;99.90;;;;;;5033413;28;20973;-83
2022/05/13 05:43:10;;;;;;;21.60;20.40;;;16.30;99.90;;;;;;5022840;28;20467;-84
2022/05/13 05:45:38;;;;;;;21.30;20.10;;;16.20;99.90;;;;;;5013572;28;20428;-84
2022/05/13 05:48:05;;;;;;;24.40;23.00;;;16.20;99.90;;;;;;5018306;28;20423;-84
2022/05/13 05:50:31;;;;;;;22.53;21.33;;;16.10;99.90;;;;;;5033308;28;20411;-80
2022/05/13 05:52:56;;;;;;;21.60;20.57;;;16.10;99.90;;;;;;5029865;28;20411;-80
2022/05/13 05:58:07;;;;;;;22.47;21.27;;;16.20;99.90;;;;;;5013813;28;20591;-81
2022/05/13 06:00:36;;;;;;;22.70;21.40;;;16.20;99.90;;;;;;5011467;28;20511;-81
2022/05/13 06:03:01;;;;;;;23.93;22.67;;;16.20;99.90;;;;;;5011444;28;20522;-81
2022/05/13 06:05:27;;;;;;;23.93;22.33;;;16.30;99.90;;;;;;5011720;28;20413;-81
2022/05/13 06:07:55;;;;;;;23.40;21.73;;;16.30;99.90;;;;;;5012048;28;20421;-81
2022/05/13 06:10:22;;;;;;;23.93;22.57;;;16.40;99.90;;;;;;5020378;28;20176;-81
2022/05/13 06:12:47;;;;;;;24.60;23.30;;;16.30;99.90;;;;;;5021120;28;20533;-81
2022/05/13 06:15:14;;;;;;;24.30;23.10;;;16.40;99.70;;;;;;5030500;28;20462;-81
2022/05/13 06:17:54;;;;;;;23.97;22.47;;;16.30;99.50;;;;;;5030795;28;20180;-82
2022/05/13 06:20:29;;;;;;;23.87;22.60;;;16.40;99.90;;;;;;5030591;28;20418;-81
2022/05/13 06:22:55;;;;;;;25.77;24.23;;;16.40;99.50;;;;;;5029056;28;20454;-80
2022/05/13 06:25:22;;;;;;;23.67;22.27;;;16.40;99.50;;;;;;5030495;28;20569;-81
2022/05/13 06:27:50;;;;;;;23.83;22.43;;;16.40;99.40;;;;;;5027060;28;20462;-81
2022/05/13 06:30:19;;;;;;;24.77;23.10;;;16.30;98.90;;;;;;5030559;28;20437;-81
2022/05/13 06:32:45;;;;;;;22.90;21.33;;;16.30;99.60;;;;;;5030419;28;20423;-81
2022/05/13 06:35:11;;;;;;;23.27;21.87;;;16.30;99.10;;;;;;5029892;28;20441;-81
2022/05/13 06:37:37;;;;;;;22.90;21.53;;;16.30;99.10;;;;;;5029699;28;20297;-79
2022/05/13 06:40:04;;;;;;;21.10;20.00;;;16.30;98.80;;;;;;5029372;28;20510;-79
2022/05/13 06:42:30;;;;;;;21.53;20.23;;;16.20;98.60;;;;;;5029688;28;20209;-79
2022/05/13 06:44:56;;;;;;;21.50;20.20;;;16.30;99.30;;;;;;5029204;28;20446;-80
2022/05/13 06:47:21;;;;;;;22.47;21.17;;;16.30;98.20;;;;;;5030271;28;20173;-80
2022/05/13 06:49:47;;;;;;;22.83;21.43;;;16.40;99.40;;;;;;5029566;28;20871;-81
2022/05/13 06:52:13;;;;;;;20.77;19.57;;;16.40;98.30;;;;;;5029439;28;20574;-79
2022/05/13 06:54:43;;;;;;;20.77;19.30;;;16.50;98.20;;;;;;5028726;28;20181;-78
2022/05/13 06:57:10;;;;;;;22.43;20.93;;;16.50;98.30;;;;;;5030259;28;20434;-79
2022/05/13 06:59:36;;;;;;;22.53;21.20;;;16.50;97.70;;;;;;5020971;28;20425;-80
2022/05/13 07:02:05;;;;;;;22.00;20.80;;;16.50;97.80;;;;;;5027115;28;20542;-81
2022/05/13 07:04:33;;;;;;;22.20;21.10;;;16.50;98.10;;;;;;5030289;28;20427;-81
2022/05/13 07:07:01;;;;;;;25.30;23.90;;;16.40;97.20;;;;;;5024743;28;20478;-81
2022/05/13 07:09:27;;;;;;;25.27;23.53;;;16.30;94.70;;;;;;5030805;28;20423;-81
2022/05/13 07:11:54;;;;;;;23.90;22.50;;;16.30;96.50;;;;;;5028312;28;20474;-81
2022/05/13 07:14:20;;;;;;;26.50;24.07;;;16.30;96.40;;;;;;5027436;28;20478;-79
2022/05/13 07:16:46;;;;;;;23.93;22.63;;;16.30;96.80;;;;;;5031126;28;20462;-79
2022/05/13 07:19:11;;;;;;;24.00;22.30;;;16.20;96.00;;;;;;5031123;28;20467;-79
2022/05/13 07:21:37;;;;;;;25.37;23.83;;;16.20;95.60;;;;;;5030920;28;20298;-79
2022/05/13 07:24:03;;;;;;;27.13;25.30;;;16.20;95.50;;;;;;5030066;28;20188;-79
2022/05/13 07:26:29;;;;;;;25.10;23.70;;;16.20;95.80;;;;;;5030594;28;20227;-79
2022/05/13 07:28:54;;;;;;;25.53;23.80;;;16.20;96.40;;;;;;5030548;28;20411;-79
2022/05/13 07:31:20;;;;;;;24.40;22.90;;;16.20;96.80;;;;;;5030371;28;20698;-79
2022/05/13 07:33:46;;;;;;;22.47;21.07;;;16.20;97.00;;;;;;5033244;28;20180;-79
2022/05/13 07:36:11;;;;;;;24.87;23.23;;;16.20;97.20;;;;;;5037108;28;20245;-79
2022/05/13 07:41:16;;;;;;;26.17;24.83;;;16.20;97.00;;;;;;5036937;28;20180;-79
2022/05/13 07:41:25;;;;;;;22.80;21.60;;;16.20;96.40;;;;;;5038150;28;20210;-80
2022/05/13 07:43:51;;;;;;;24.97;23.47;;;16.20;96.70;;;;;;5031702;28;20431;-80
2022/05/13 07:46:17;;;;;;;24.47;23.10;;;16.10;96.30;;;;;;5035623;28;20419;-81
2022/05/13 07:48:43;;;;;;;23.63;22.13;;;16.10;95.30;;;;;;5037203;28;20422;-80
2022/05/13 07:51:09;;;;;;;23.53;22.07;;;16.20;95.60;;;;;;5036757;28;20811;-81
2022/05/13 07:53:36;;;;;;;21.40;20.10;;;16.10;95.50;;;;;;5036808;28;20597;-80
2022/05/13 07:56:02;;;;;;;20.60;19.70;;;16.20;96.00;;;;;;5036454;28;20415;-80
2022/05/13 07:58:29;;;;;;;23.60;22.10;;;16.10;93.50;;;;;;5037039;28;20907;-80
2022/05/13 08:00:54;;;;;;;24.50;22.97;;;16.00;93.30;;;;;;5036343;28;20419;-80
2022/05/13 08:03:20;;;;;;;22.33;21.13;;;16.00;93.00;;;;;;5036874;28;20503;-80
2022/05/13 08:05:50;;;;;;;22.90;21.70;;;16.00;92.90;;;;;;5037105;28;20615;-80
2022/05/13 08:08:22;;;;;;;23.13;21.23;;;16.00;93.00;;;;;;5036607;28;20522;-80
2022/05/13 08:10:51;;;;;;;22.33;20.90;;;16.10;93.60;;;;;;5036681;28;20423;-80
2022/05/13 08:13:18;;;;;;;21.27;20.17;;;16.10;93.70;;;;;;5036566;28;20427;-80
2022/05/13 08:15:44;;;;;;;20.83;19.47;;;16.10;94.00;;;;;;5028151;28;20423;-80
2022/05/13 08:18:09;;;;;;;19.47;18.17;;;16.20;94.60;;;;;;5025109;28;20425;-80
2022/05/13 08:20:35;;;;;;;20.33;19.00;;;16.20;94.60;;;;;;5025541;28;20430;-80
2022/05/13 08:23:02;;;;;;;19.53;18.20;;;16.20;93.00;;;;;;5020991;28;20726;-80
2022/05/13 08:25:28;;;;;;;19.23;18.17;;;16.30;93.10;;;;;;5036525;28;20791;-80
2022/05/13 08:27:54;;;;;;;20.83;19.60;;;16.20;91.30;;;;;;5036537;28;20426;-80
2022/05/13 08:30:20;;;;;;;23.10;21.80;;;16.30;90.90;;;;;;5036598;28;20419;-79
2022/05/13 08:32:46;;;;;;;25.03;23.33;;;16.30;89.90;;;;;;5037965;28;20208;-79
2022/05/13 08:35:13;;;;;;;25.90;24.10;;;16.20;89.70;;;;;;5036324;28;20473;-79
2022/05/13 08:37:47;;;;;;;26.10;24.30;;;16.20;88.70;;;;;;5036299;28;20514;-79
2022/05/13 08:40:23;;;;;;;30.67;28.87;;;16.10;89.20;;;;;;5036557;28;20483;-79
2022/05/13 08:42:49;;;;;;;31.80;30.10;;;16.00;81.90;;;;;;5037043;28;21008;-80
2022/05/13 08:45:52;;;;;;;30.50;28.80;;;16.00;82.60;;;;;;5035584;28;20434;-79
2022/05/13 08:48:27;;;;;;;27.80;26.10;;;16.00;83.50;;;;;;5034909;28;20411;-79
2022/05/13 08:51:18;;;;;;;28.50;26.80;;;16.10;88.50;;;;;;5034778;28;20442;-79
2022/05/13 08:54:03;;;;;;;31.57;29.87;;;16.00;84.10;;;;;;5048736;28;20259;-79
2022/05/13 08:56:30;;;;;;;31.53;29.30;;;16.00;83.80;;;;;;5033864;28;20415;-79
2022/05/13 08:59:11;;;;;;;29.73;27.73;;;16.10;82.00;;;;;;5033254;28;20423;-79
2022/05/13 09:01:45;;;;;;;28.40;26.60;;;16.10;81.00;;;;;;5033192;28;20493;-79
2022/05/13 09:04:36;;;;;;;30.73;29.10;;;16.10;80.20;;;;;;5033052;28;20411;-79
2022/05/13 09:07:06;;;;;;;28.43;26.30;;;16.10;80.50;;;;;;5033022;28;20415;-79
2022/05/13 09:09:34;;;;;;;27.87;26.10;;;16.10;81.90;;;;;;5024516;28;20459;-79
2022/05/13 09:12:57;;;;;;;41.73;39.53;;;16.10;78.70;;;;;;5022579;28;20831;-79
2022/05/13 09:15:48;;;;;;;42.63;40.13;;;16.20;72.20;;;;;;4971900;28;20410;-79
2022/05/13 09:18:36;;;;;;;35.00;33.00;;;16.20;72.60;;;;;;4946965;28;20526;-79
2022/05/13 09:21:29;;;;;;;34.30;32.50;;;16.20;73.40;;;;;;5014055;28;20412;-79
2022/05/13 09:23:55;;;;;;;42.63;40.47;;;16.20;72.70;;;;;;5019961;28;20420;-79
2022/05/13 09:26:29;;;;;;;51.70;49.10;;;16.20;67.10;;;;;;5025972;28;20408;-79
2022/05/13 09:29:17;;;;;;;54.40;51.50;;;16.20;65.80;;;;;;5020599;28;20180;-79
2022/05/13 09:32:04;;;;;;;53.37;50.33;;;16.30;65.40;;;;;;5021707;28;20455;-78
2022/05/13 09:34:39;;;;;;;59.20;56.10;;;16.70;62.50;;;;;;5024011;28;20445;-78
2022/05/13 09:37:07;;;;;;;54.83;51.83;;;16.90;62.00;;;;;;5029057;28;20447;-78
2022/05/13 09:39:40;;;;;;;59.40;56.30;;;16.80;67.00;;;;;;5033696;28;20418;-78
2022/05/13 09:42:33;;;;;;;62.03;59.03;;;16.70;63.50;;;;;;5032252;28;20463;-78
2022/05/13 09:45:25;;;;;;;59.30;55.80;;;16.90;62.00;;;;;;5032023;28;20431;-78
2022/05/13 09:48:06;;;;;;;55.33;52.73;;;17.00;62.80;;;;;;5032303;28;20420;-78
2022/05/13 09:50:36;;;;;;;50.63;47.90;;;16.90;63.40;;;;;;5033656;28;20767;-79
2022/05/13 09:53:30;;;;;;;61.00;58.00;;;16.90;63.70;;;;;;5032663;28;20935;-81
2022/05/13 09:55:58;;;;;;;70.47;66.50;;;16.90;61.60;;;;;;5024667;28;20419;-78
2022/05/13 09:58:33;;;;;;;64.37;60.97;;;16.90;58.80;;;;;;5031507;28;20498;-80
2022/05/13 10:01:07;;;;;;;55.43;52.40;;;16.80;60.50;;;;;;5032315;28;20414;-80
2022/05/13 10:03:37;;;;;;;62.27;59.17;;;16.80;61.60;;;;;;5032278;28;20462;-80
2022/05/13 10:06:09;;;;;;;63.10;59.93;;;16.80;59.70;;;;;;5031874;28;20420;-80
2022/05/13 10:08:37;;;;;;;61.37;58.20;;;16.70;62.10;;;;;;5033238;28;20420;-80
2022/05/13 10:13:59;;;;;;;59.87;56.47;;;16.80;62.60;;;;;;5033229;28;20481;-80
2022/05/13 10:16:32;;;;;;;59.67;56.77;;;17.00;61.80;;;;;;5032009;28;20828;-80
2022/05/13 10:19:18;;;;;;;55.60;52.63;;;17.10;57.80;;;;;;5032943;28;20454;-82
2022/05/13 10:21:52;;;;;;;47.53;45.20;;;17.10;58.90;;;;;;5031883;28;20462;-82
2022/05/13 10:24:50;;;;;;;52.67;49.87;;;17.10;58.90;;;;;;5027526;28;20442;-82
2022/05/13 10:27:32;;;;;;;48.07;45.77;;;17.20;50.90;;;;;;5047046;28;20923;-81
2022/05/13 10:30:05;;;;;;;45.30;42.90;;;17.20;56.50;;;;;;5028592;28;20415;-82
2022/05/13 10:32:47;;;;;;;48.00;45.50;;;17.30;55.40;;;;;;5031876;28;20415;-80
2022/05/13 10:35:18;;;;;;;51.47;48.90;;;17.30;57.60;;;;;;5031376;28;20424;-81
2022/05/13 10:38:02;;;;;;;49.93;47.43;;;17.20;56.70;;;;;;5021109;28;20423;-82
2022/05/13 10:40:34;;;;;;;47.77;45.40;;;17.20;54.60;;;;;;5019746;28;20415;-81
2022/05/13 10:43:05;;;;;;;45.67;43.37;;;17.30;56.30;;;;;;5031924;28;20462;-80
2022/05/13 10:45:33;;;;;;;51.03;48.00;;;17.30;55.80;;;;;;5032022;28;20435;-80
2022/05/13 10:48:25;;;;;;;47.60;45.20;;;17.40;56.80;;;;;;5031549;28;20423;-81
2022/05/13 10:51:15;;;;;;;46.57;44.27;;;17.30;56.70;;;;;;5031151;28;20407;-80
2022/05/13 10:54:11;;;;;;;47.13;44.70;;;17.40;55.30;;;;;;5031568;28;20462;-81
2022/05/13 10:56:42;;;;;;;45.07;42.77;;;17.50;54.90;;;;;;5030781;28;20423;-80
2022/05/13 10:59:33;;;;;;;48.33;45.63;;;17.50;56.30;;;;;;5021926;28;20416;-81
2022/05/13 11:02:20;;;;;;;47.87;45.50;;;17.50;56.10;;;;;;5021907;28;20451;-81
2022/05/13 11:04:52;;;;;;;48.20;45.70;;;17.60;53.20;;;;;;5022672;28;20502;-78
2022/05/13 11:07:40;;;;;;;47.60;45.27;;;17.70;56.00;;;;;;5020337;28;20503;-78
2022/05/13 11:10:28;;;;;;;44.20;41.90;;;17.80;53.50;;;;;;5046625;28;20419;-79
2022/05/13 11:13:19;;;;;;;49.53;47.03;;;17.80;56.10;;;;;;5041970;28;20419;-83
2022/05/13 11:16:02;;;;;;;51.27;48.77;;;17.80;53.40;;;;;;5022474;28;20413;-82
2022/05/13 11:18:55;;;;;;;48.90;46.00;;;17.90;53.10;;;;;;5022815;28;20419;-80
2022/05/13 11:21:41;;;;;;;48.13;45.70;;;17.90;50.40;;;;;;5021708;28;20931;-83
2022/05/13 11:27:20;;;;;;;50.57;48.20;;;18.10;53.20;;;;;;5000571;28;20439;-81
2022/05/13 11:30:14;;;;;;;48.43;46.13;;;18.20;52.50;;;;;;5012071;28;20833;-80
2022/05/13 11:33:13;;;;;;;52.80;50.17;;;18.30;51.40;;;;;;5011919;28;20424;-80
2022/05/13 11:36:11;;;;;;;50.90;48.40;;;18.50;49.10;;;;;;5013701;28;20506;-80
2022/05/13 11:39:10;;;;;;;46.27;43.80;;;18.60;45.80;;;;;;5029784;28;20461;-80
2022/05/13 11:42:13;;;;;;;51.80;49.30;;;18.70;48.00;;;;;;4963099;28;20469;-80
2022/05/13 11:45:13;;;;;;;50.57;47.67;;;18.90;42.60;;;;;;5030913;28;20526;-78
2022/05/13 11:48:17;;;;;;;48.20;45.53;;;19.10;41.80;;;;;;5030710;28;20779;-78
2022/05/13 11:50:43;;;;;;;46.50;44.00;;;19.00;45.50;;;;;;5030707;28;20454;-78
2022/05/13 11:53:08;;;;;;;44.80;42.20;;;19.00;49.60;;;;;;5030701;28;20833;-78
2022/05/13 11:55:47;;;;;;;49.07;46.77;;;18.90;48.40;;;;;;5030396;28;20204;-78
2022/05/13 11:58:50;;;;;;;50.93;48.43;;;19.00;48.30;;;;;;5030585;28;20180;-78
2022/05/13 12:01:39;;;;;;;47.40;45.00;;;19.10;45.60;;;;;;5030499;28;20411;-78
2022/05/13 12:04:14;;;;;;;47.40;44.93;;;19.10;46.80;;;;;;4991900;28;20502;-78
2022/05/13 12:06:52;;;;;;;44.30;42.07;;;19.30;46.40;;;;;;5030424;28;20422;-81
2022/05/13 12:09:29;;;;;;;47.80;45.50;;;19.50;47.90;;;;;;5030103;28;20419;-81
2022/05/13 12:12:32;;;;;;;44.30;42.00;;;19.50;45.80;;;;;;5025490;28;20565;-81
2022/05/13 12:15:17;;;;;;;44.33;41.97;;;19.50;44.60;;;;;;5016751;28;20420;-81
2022/05/13 12:18:12;;;;;;;41.13;39.13;;;19.70;44.80;;;;;;5011119;28;20418;-80
2022/05/13 12:20:47;;;;;;;45.60;43.40;;;19.80;43.70;;;;;;5012408;28;20427;-81
2022/05/13 12:23:22;;;;;;;46.20;43.90;;;19.90;45.40;;;;;;5014828;28;20459;-80
2022/05/13 12:25:51;;;;;;;43.93;41.33;;;20.00;42.30;;;;;;5026516;28;20411;-81
2022/05/13 12:28:16;;;;;;;42.37;40.23;;;20.10;43.90;;;;;;5034506;28;20415;-82
2022/05/13 12:30:51;;;;;;;42.77;40.67;;;20.20;41.50;;;;;;5020399;28;20451;-81
2022/05/13 12:33:20;;;;;;;46.17;43.87;;;20.30;42.60;;;;;;5024425;28;20188;-81
2022/05/13 12:39:11;;;;;;;43.73;41.70;;;20.60;41.00;;;;;;5030997;28;20437;-81
2022/05/13 12:41:43;;;;;;;44.40;42.17;;;20.40;42.10;;;;;;5025002;28;20448;-81
2022/05/13 12:44:12;;;;;;;43.30;41.00;;;20.20;39.40;;;;;;5013839;28;20443;-81
2022/05/13 12:46:48;;;;;;;43.83;41.60;;;20.30;37.80;;;;;;5013963;28;20413;-82
2022/05/13 12:49:21;;;;;;;45.50;43.07;;;20.20;41.60;;;;;;5032511;28;20510;-81
2022/05/13 12:52:14;;;;;;;42.63;40.63;;;20.10;41.70;;;;;;5033137;28;20758;-82
2022/05/13 12:54:59;;;;;;;44.30;42.07;;;20.00;40.60;;;;;;5033225;28;20450;-81
2022/05/13 12:57:30;;;;;;;42.20;40.10;;;20.00;40.70;;;;;;5033614;28;20514;-81
2022/05/13 12:59:57;;;;;;;42.43;40.53;;;20.20;41.10;;;;;;5033295;28;20781;-82
2022/05/13 13:02:26;;;;;;;43.07;41.07;;;20.40;41.20;;;;;;5033271;28;20455;-82
2022/05/13 13:04:57;;;;;;;42.20;40.30;;;20.40;40.70;;;;;;5033247;28;20417;-82
2022/05/13 13:07:26;;;;;;;40.80;38.80;;;20.60;39.50;;;;;;5033528;28;20419;-81
2022/05/13 13:09:52;;;;;;;39.60;37.60;;;20.60;36.90;;;;;;5033160;28;20408;-82
2022/05/13 13:12:29;;;;;;;35.17;33.57;;;20.60;38.30;;;;;;5032773;28;20419;-81